KPBI

Palm Beach International Airport

West Palm Beach, Florida, USA
KPBI 210903Z 2109/2206 09008KT P6SM SCT025 BKN250 FM211300 10013KT P6SM SCT030 SCT050 BKN250 FM211800 09016G26KT P6SM VCSH SCT025 BKN050 BKN250 FM220100 10012KT P6SM VCSH SCT020 BKN035
Issued Valid From Valid To
Apr-21 @ 09:03 UTC
(46 minutes ago)
Apr-21 @ 09:00 UTC
(49 minutes ago)
Apr-22 @ 06:00 UTC
(in 20 hours)
Apr-21 @ 09:00 to Apr-21 @ 13:00
KPBI 210903Z 2109/2206 09008KT P6SM SCT025 BKN250
Wind Visibility Clouds
90° at 8 knots Greater than 6 miles
  • Scattered at 2,500' AGL
  • Broken at 25,000' AGL
From Apr-21 @ 13:00 to Apr-21 @ 18:00
FM211300 10013KT P6SM SCT030 SCT050 BKN250
Wind Visibility Clouds
100° at 13 knots Greater than 6 miles
  • Scattered at 3,000' AGL
  • Scattered at 5,000' AGL
  • Broken at 25,000' AGL
From Apr-21 @ 18:00 to Apr-22 @ 01:00
FM211800 09016G26KT P6SM VCSH SCT025 BKN050 BKN250
Wind Visibility Clouds
90° at 16 knots
 Gusting to 26 knots
Greater than 6 miles
  • Scattered at 2,500' AGL
  • Broken at 5,000' AGL
  • Broken at 25,000' AGL
From Apr-22 @ 01:00 to Apr-22 @ 06:00
FM220100 10012KT P6SM VCSH SCT020 BKN035
Wind Visibility Clouds
100° at 12 knots Greater than 6 miles
  • Scattered at 2,000' AGL
  • Broken at 3,500' AGL
KPBI 210903Z 2109/2206 09008KT P6SM SCT025 BKN250 FM211300 10013KT P6SM SCT030 SCT050 BKN250 FM211800 09016G26KT P6SM VCSH SCT025 BKN050 BKN250 FM220100 10012KT P6SM VCSH SCT020 BKN035
Issued Apr-21 @ 09:03 UTC
(46 minutes ago)
Valid From Apr-21 @ 09:00 UTC
(49 minutes ago)
Valid To Apr-22 @ 06:00 UTC
(in 20 hours)
Apr-21 @ 09:00 - Apr-21 @ 13:00
Wind Visibility
90° at 8 knots Greater than 6 miles
Clouds
  • Scattered at 2,500' AGL
  • Broken at 25,000' AGL
From Apr-21 @ 13:00 - Apr-21 @ 18:00
Wind Visibility
100° at 13 knots Greater than 6 miles
Clouds
  • Scattered at 3,000' AGL
  • Scattered at 5,000' AGL
  • Broken at 25,000' AGL
From Apr-21 @ 18:00 - Apr-22 @ 01:00
Wind Visibility
90° at 16 knots
 Gusting to 26 knots
Greater than 6 miles
Clouds
  • Scattered at 2,500' AGL
  • Broken at 5,000' AGL
  • Broken at 25,000' AGL
From Apr-22 @ 01:00 - Apr-22 @ 06:00
Wind Visibility
100° at 12 knots Greater than 6 miles
Clouds
  • Scattered at 2,000' AGL
  • Broken at 3,500' AGL